Time;durP1;ratioP1;P1;durP2;ratioP2;P2;SDS_P1;SDS_P2;PMS_P1;PMS_P2;Temp;Humidity;BMP_temperature;BMP_pressure;BME280_temperature;BME280_humidity;BME280_pressure;Samples;Min_cycle;Max_cycle;Signal;HPM_P1;HPM_P2
2023/05/17 00:00:37;;;;;;;23.88;6.15;;;10.00;99.90;;;;;;5063809;28;20028;-72
2023/05/17 00:03:02;;;;;;;24.23;6.65;;;10.00;99.90;;;;;;5064151;28;20028;-71
2023/05/17 00:05:28;;;;;;;33.88;7.30;;;10.00;99.90;;;;;;5062622;28;20090;-71
2023/05/17 00:07:56;;;;;;;25.02;5.95;;;10.10;99.90;;;;;;5063499;28;20541;-72
2023/05/17 00:10:21;;;;;;;23.90;5.70;;;10.00;99.90;;;;;;5061354;28;20474;-73
2023/05/17 00:12:47;;;;;;;30.52;6.00;;;9.90;99.90;;;;;;5063652;28;20031;-75
2023/05/17 00:15:13;;;;;;;29.48;5.72;;;9.90;99.90;;;;;;5063786;28;20104;-72
2023/05/17 00:17:39;;;;;;;22.13;5.35;;;9.90;99.90;;;;;;5063773;28;20021;-71
2023/05/17 00:20:05;;;;;;;27.38;5.78;;;9.80;99.90;;;;;;5063360;28;20028;-71
2023/05/17 00:22:30;;;;;;;20.08;4.72;;;9.80;99.90;;;;;;5063763;28;20031;-71
2023/05/17 00:24:56;;;;;;;27.58;4.88;;;9.70;99.90;;;;;;5063582;28;20477;-71
2023/05/17 00:27:22;;;;;;;19.98;4.45;;;9.60;99.90;;;;;;5063308;28;20024;-71
2023/05/17 00:29:47;;;;;;;22.60;4.60;;;9.60;99.90;;;;;;5062637;28;20025;-71
2023/05/17 00:32:13;;;;;;;22.15;3.97;;;9.60;99.90;;;;;;5063690;28;20057;-72
2023/05/17 00:34:38;;;;;;;28.50;4.85;;;9.60;99.90;;;;;;5063294;28;20021;-71
2023/05/17 00:37:04;;;;;;;24.77;4.30;;;9.60;99.90;;;;;;5063446;28;20033;-71
2023/05/17 00:39:29;;;;;;;24.80;4.70;;;9.50;99.90;;;;;;5062027;28;20021;-72
2023/05/17 00:41:55;;;;;;;32.40;4.90;;;9.50;99.90;;;;;;5062849;28;20033;-72
2023/05/17 00:44:20;;;;;;;19.70;4.38;;;9.50;99.90;;;;;;5063325;28;20025;-72
2023/05/17 00:46:46;;;;;;;24.27;4.32;;;9.40;99.90;;;;;;5061667;28;20025;-68
2023/05/17 00:49:11;;;;;;;29.08;4.55;;;9.40;99.90;;;;;;5060681;28;20059;-70
2023/05/17 00:51:39;;;;;;;26.55;4.60;;;9.30;99.90;;;;;;5063450;28;20037;-71
2023/05/17 00:54:05;;;;;;;24.77;3.85;;;9.30;99.90;;;;;;5061933;28;20081;-72
2023/05/17 00:56:31;;;;;;;28.05;4.45;;;9.30;99.90;;;;;;5063171;28;20048;-71
2023/05/17 00:58:57;;;;;;;25.10;4.75;;;9.30;99.90;;;;;;5063101;28;20043;-74
2023/05/17 01:01:25;;;;;;;19.92;4.13;;;9.30;99.90;;;;;;5060996;28;20033;-72
2023/05/17 01:03:50;;;;;;;29.20;3.88;;;9.20;99.90;;;;;;5060815;28;20017;-73
2023/05/17 01:06:16;;;;;;;28.98;4.63;;;9.20;99.90;;;;;;5062919;28;20115;-73
2023/05/17 01:08:43;;;;;;;23.92;4.05;;;9.20;99.90;;;;;;5060648;28;20474;-73
2023/05/17 01:11:33;;;;;;;21.83;3.70;;;9.10;99.90;;;;;;5059519;28;20394;-74
2023/05/17 01:14:24;;;;;;;31.02;4.57;;;9.10;99.90;;;;;;5062291;28;20124;-71
2023/05/17 01:16:55;;;;;;;30.45;4.40;;;9.00;99.90;;;;;;5047285;28;20041;-71
2023/05/17 01:19:53;;;;;;;21.80;4.10;;;9.00;99.90;;;;;;5060834;28;20127;-74
2023/05/17 01:22:44;;;;;;;22.20;4.22;;;9.00;99.90;;;;;;5033239;28;20044;-73
2023/05/17 01:25:34;;;;;;;30.92;4.45;;;9.00;99.90;;;;;;5061417;28;20013;-74
2023/05/17 01:28:02;;;;;;;25.15;4.57;;;9.00;99.90;;;;;;5061867;28;20028;-71
2023/05/17 01:30:28;;;;;;;21.17;3.67;;;9.00;99.90;;;;;;5060712;28;20051;-73
2023/05/17 01:32:57;;;;;;;24.58;4.50;;;8.90;99.90;;;;;;5060642;28;20025;-73
2023/05/17 01:35:24;;;;;;;30.00;5.00;;;8.90;99.90;;;;;;5060168;28;20051;-73
2023/05/17 01:37:51;;;;;;;20.58;4.40;;;8.90;99.90;;;;;;5061797;28;20021;-72
2023/05/17 01:40:18;;;;;;;24.35;4.13;;;8.90;99.90;;;;;;5060564;28;20029;-71
2023/05/17 01:42:45;;;;;;;24.67;4.50;;;8.90;99.90;;;;;;5063724;28;20021;-72
2023/05/17 01:45:39;;;;;;;26.88;4.57;;;8.80;99.90;;;;;;5060565;28;20032;-72
2023/05/17 01:48:10;;;;;;;36.15;4.80;;;8.80;99.90;;;;;;5062068;28;20037;-70
2023/05/17 01:50:38;;;;;;;31.75;5.07;;;8.80;99.90;;;;;;5061760;28;20032;-72
2023/05/17 01:53:21;;;;;;;38.63;4.43;;;8.80;99.90;;;;;;5060875;28;20020;-71
2023/05/17 01:56:01;;;;;;;29.48;4.60;;;8.80;99.90;;;;;;5061727;28;20043;-72
2023/05/17 01:58:29;;;;;;;28.70;5.00;;;8.90;99.90;;;;;;5059826;28;20029;-75
2023/05/17 02:00:56;;;;;;;25.55;4.60;;;8.80;99.90;;;;;;5060959;28;20025;-72
2023/05/17 02:03:23;;;;;;;27.65;4.63;;;8.80;99.90;;;;;;5063541;28;20047;-73
2023/05/17 02:05:48;;;;;;;24.33;4.18;;;8.80;99.90;;;;;;5061577;28;20076;-72
2023/05/17 02:08:14;;;;;;;26.67;4.55;;;8.80;99.90;;;;;;5060660;28;20028;-75
2023/05/17 02:10:39;;;;;;;28.42;4.53;;;8.80;99.90;;;;;;5060787;28;20029;-73
2023/05/17 02:13:05;;;;;;;27.40;4.70;;;8.80;99.90;;;;;;5062518;28;20028;-72
2023/05/17 02:15:31;;;;;;;30.40;5.05;;;8.80;99.90;;;;;;5060228;28;20032;-73
2023/05/17 02:17:56;;;;;;;21.27;4.13;;;8.80;99.90;;;;;;5060170;28;20025;-74
2023/05/17 02:20:22;;;;;;;31.45;4.53;;;8.80;99.90;;;;;;5063538;28;20052;-72
2023/05/17 02:22:48;;;;;;;31.92;4.68;;;8.80;99.90;;;;;;5061668;28;20028;-70
2023/05/17 02:25:13;;;;;;;28.05;4.65;;;8.80;99.90;;;;;;5061075;28;20041;-75
2023/05/17 02:27:39;;;;;;;27.90;4.68;;;8.80;99.90;;;;;;5061309;28;20025;-73
2023/05/17 02:30:05;;;;;;;18.15;4.10;;;8.80;99.90;;;;;;5061775;28;20041;-74
2023/05/17 02:32:31;;;;;;;28.38;4.90;;;8.80;99.90;;;;;;5059997;28;20025;-76
2023/05/17 02:34:57;;;;;;;27.77;4.43;;;8.80;99.90;;;;;;5060754;28;20032;-74
2023/05/17 02:37:23;;;;;;;24.52;3.72;;;8.80;99.90;;;;;;5061617;28;20021;-71
2023/05/17 02:39:49;;;;;;;19.52;4.18;;;8.80;99.90;;;;;;5060598;28;20382;-74
2023/05/17 02:42:14;;;;;;;29.38;3.85;;;8.80;99.90;;;;;;5060148;28;20447;-72
2023/05/17 02:44:40;;;;;;;25.23;4.20;;;8.80;99.90;;;;;;5060027;28;20018;-70
2023/05/17 02:47:06;;;;;;;30.67;4.43;;;8.70;99.90;;;;;;5059668;28;20584;-72
2023/05/17 02:49:31;;;;;;;26.48;3.63;;;8.80;99.90;;;;;;5059542;28;20064;-71
2023/05/17 02:51:57;;;;;;;22.10;4.28;;;8.70;99.90;;;;;;5061233;28;20094;-71
2023/05/17 02:54:22;;;;;;;29.20;4.38;;;8.70;99.90;;;;;;5060480;28;20098;-70
2023/05/17 02:56:48;;;;;;;30.17;4.13;;;8.60;99.90;;;;;;5060786;28;20025;-70
2023/05/17 02:59:14;;;;;;;26.85;3.83;;;8.60;99.90;;;;;;5061167;28;20032;-73
2023/05/17 03:01:39;;;;;;;24.88;4.28;;;8.60;99.90;;;;;;5061177;28;20025;-72
2023/05/17 03:04:05;;;;;;;25.77;4.32;;;8.50;99.90;;;;;;5059745;28;20021;-73
2023/05/17 03:06:30;;;;;;;19.88;3.92;;;8.50;99.90;;;;;;5061073;28;20029;-72
2023/05/17 03:08:56;;;;;;;23.23;3.40;;;8.50;99.90;;;;;;5060577;28;20103;-75
2023/05/17 03:11:22;;;;;;;18.63;3.28;;;8.50;99.90;;;;;;5059553;28;20041;-72
2023/05/17 03:13:50;;;;;;;24.10;4.05;;;8.50;99.90;;;;;;5059296;28;20041;-72
2023/05/17 03:16:16;;;;;;;27.33;4.07;;;8.50;99.90;;;;;;5060406;28;20021;-75
2023/05/17 03:18:42;;;;;;;21.50;3.38;;;8.50;99.90;;;;;;5063238;28;20025;-76
2023/05/17 03:21:07;;;;;;;20.52;3.60;;;8.50;99.90;;;;;;5064591;28;20050;-76
2023/05/17 03:23:33;;;;;;;21.95;3.05;;;8.50;99.90;;;;;;5063106;28;20025;-75
2023/05/17 03:25:58;;;;;;;22.33;3.45;;;8.50;99.90;;;;;;5064895;28;20013;-76
2023/05/17 03:28:24;;;;;;;21.08;3.63;;;8.50;99.90;;;;;;5062751;28;20027;-74
2023/05/17 03:30:50;;;;;;;22.73;3.30;;;8.60;99.90;;;;;;5062753;28;20123;-73
2023/05/17 03:33:16;;;;;;;24.65;3.22;;;8.60;99.90;;;;;;5062384;28;20115;-75
2023/05/17 03:35:42;;;;;;;17.75;2.78;;;8.50;99.90;;;;;;5062716;28;20067;-74
2023/05/17 03:38:08;;;;;;;18.67;3.00;;;8.60;99.90;;;;;;5064663;28;20041;-73
2023/05/17 03:40:33;;;;;;;20.65;2.60;;;8.60;99.90;;;;;;5062982;28;20071;-73
2023/05/17 03:42:59;;;;;;;19.13;3.65;;;8.50;99.90;;;;;;5062206;28;20025;-73
2023/05/17 03:45:26;;;;;;;20.02;3.17;;;8.50;99.90;;;;;;5064348;28;20062;-72
2023/05/17 03:47:51;;;;;;;11.35;2.40;;;8.50;99.90;;;;;;5063609;28;20115;-72
2023/05/17 03:50:17;;;;;;;17.02;2.67;;;8.50;99.90;;;;;;5063334;28;20077;-71
2023/05/17 03:52:42;;;;;;;14.35;2.35;;;8.50;99.90;;;;;;5064414;28;20021;-72
2023/05/17 03:55:08;;;;;;;17.73;2.60;;;8.60;99.90;;;;;;5064299;28;20459;-74
2023/05/17 03:57:34;;;;;;;14.73;2.35;;;8.60;99.90;;;;;;5063388;28;20032;-70
2023/05/17 04:00:00;;;;;;;12.45;2.17;;;8.60;99.90;;;;;;5063620;28;20074;-73
2023/05/17 04:02:25;;;;;;;13.20;2.20;;;8.60;99.90;;;;;;5063892;28;20103;-72
2023/05/17 04:04:51;;;;;;;24.80;2.60;;;8.60;99.90;;;;;;5063157;28;20158;-71
2023/05/17 04:07:17;;;;;;;16.13;2.22;;;8.60;99.90;;;;;;5063592;28;20500;-73
2023/05/17 04:09:43;;;;;;;15.88;2.25;;;8.60;99.90;;;;;;5064068;28;20025;-74
2023/05/17 04:12:11;;;;;;;11.35;1.80;;;8.60;99.90;;;;;;5062536;28;20036;-73
2023/05/17 04:14:37;;;;;;;18.52;2.25;;;8.60;99.90;;;;;;5061869;28;20082;-73
2023/05/17 04:17:03;;;;;;;15.80;2.85;;;8.60;99.90;;;;;;5063870;28;20027;-70
2023/05/17 04:19:29;;;;;;;17.50;2.22;;;8.60;99.90;;;;;;5062667;28;20040;-71
2023/05/17 04:21:54;;;;;;;16.15;2.33;;;8.60;99.90;;;;;;5063652;28;20021;-75
2023/05/17 04:24:20;;;;;;;18.38;2.58;;;8.60;99.90;;;;;;5061471;28;20048;-71
2023/05/17 04:26:46;;;;;;;15.98;2.40;;;8.60;99.90;;;;;;5063163;28;20021;-74
2023/05/17 04:29:12;;;;;;;13.63;2.00;;;8.60;99.90;;;;;;5062094;28;20056;-74
2023/05/17 04:31:37;;;;;;;12.02;2.08;;;8.60;99.90;;;;;;5063438;28;20025;-74
2023/05/17 04:34:03;;;;;;;16.70;2.67;;;8.70;99.90;;;;;;5062714;28;20519;-73
2023/05/17 04:36:28;;;;;;;11.75;2.00;;;8.70;99.90;;;;;;5062140;28;20021;-74
2023/05/17 04:38:54;;;;;;;14.05;2.28;;;8.70;99.90;;;;;;5061964;28;20078;-73
2023/05/17 04:41:20;;;;;;;16.63;2.08;;;8.80;99.90;;;;;;5062759;28;20052;-74
2023/05/17 04:43:46;;;;;;;15.75;2.00;;;8.80;99.90;;;;;;5061496;28;20045;-73
2023/05/17 04:46:11;;;;;;;16.35;2.15;;;8.80;99.90;;;;;;5062024;28;20028;-73
2023/05/17 04:48:37;;;;;;;13.45;2.38;;;8.90;99.90;;;;;;5061660;28;20040;-73
2023/05/17 04:51:03;;;;;;;18.48;2.35;;;8.80;99.90;;;;;;5062756;28;20035;-74
2023/05/17 04:53:29;;;;;;;17.77;2.67;;;8.80;99.90;;;;;;5061166;28;20473;-72
2023/05/17 04:55:58;;;;;;;14.00;2.60;;;8.80;99.90;;;;;;5063098;28;20021;-74
2023/05/17 04:58:24;;;;;;;21.73;2.28;;;8.80;99.90;;;;;;5062578;28;20051;-74
2023/05/17 05:00:51;;;;;;;13.38;2.03;;;8.70;99.90;;;;;;5060946;28;20028;-71
2023/05/17 05:03:17;;;;;;;16.33;2.53;;;8.70;99.90;;;;;;5062208;28;20493;-74
2023/05/17 05:05:43;;;;;;;14.13;2.50;;;8.70;99.90;;;;;;5062291;28;20025;-73
2023/05/17 05:08:10;;;;;;;14.18;2.10;;;8.80;99.90;;;;;;5061397;28;20029;-71
2023/05/17 05:10:35;;;;;;;11.90;2.15;;;8.80;99.90;;;;;;5062552;28;20040;-70
2023/05/17 05:13:01;;;;;;;13.27;2.08;;;8.90;99.90;;;;;;5060774;28;20045;-70
2023/05/17 05:15:27;;;;;;;20.27;2.33;;;8.90;99.90;;;;;;5061757;28;20043;-69
2023/05/17 05:17:52;;;;;;;11.00;1.95;;;8.90;99.90;;;;;;5061131;28;20142;-71
2023/05/17 05:20:18;;;;;;;15.20;2.65;;;8.90;99.90;;;;;;5061140;28;20024;-71
2023/05/17 05:22:43;;;;;;;15.38;2.45;;;8.90;99.90;;;;;;5062120;28;20025;-70
2023/05/17 05:25:09;;;;;;;17.80;2.60;;;8.90;99.90;;;;;;5061003;28;20112;-69
2023/05/17 05:27:35;;;;;;;23.10;2.47;;;8.90;99.90;;;;;;5061778;28;20053;-70
2023/05/17 05:30:01;;;;;;;12.57;2.20;;;8.90;99.90;;;;;;5060937;28;20500;-68
2023/05/17 05:32:27;;;;;;;19.77;2.28;;;8.90;99.90;;;;;;5062289;28;20056;-70
2023/05/17 05:34:52;;;;;;;16.88;2.55;;;9.00;99.90;;;;;;5060705;28;20037;-71
2023/05/17 05:37:18;;;;;;;20.83;2.38;;;9.00;99.90;;;;;;5062277;28;20013;-68
2023/05/17 05:39:44;;;;;;;20.55;2.75;;;9.10;99.90;;;;;;5061893;28;20020;-69
2023/05/17 05:42:10;;;;;;;16.63;2.40;;;9.10;99.90;;;;;;5061768;28;20045;-72
2023/05/17 05:44:36;;;;;;;24.33;3.17;;;9.10;99.90;;;;;;5059576;28;20028;-70
2023/05/17 05:47:01;;;;;;;17.20;3.47;;;9.20;99.90;;;;;;5061383;28;20021;-71
2023/05/17 05:49:27;;;;;;;21.92;3.40;;;9.20;99.90;;;;;;5059984;28;20040;-72
2023/05/17 05:51:53;;;;;;;21.20;2.95;;;9.20;99.90;;;;;;5058909;28;20060;-70
2023/05/17 05:54:19;;;;;;;13.27;2.92;;;9.20;99.90;;;;;;5060361;28;20147;-70
2023/05/17 05:56:45;;;;;;;29.10;3.85;;;9.20;99.90;;;;;;5060499;28;20052;-71
2023/05/17 05:59:10;;;;;;;22.63;3.47;;;9.30;99.90;;;;;;5056017;28;20044;-70
2023/05/17 06:01:36;;;;;;;17.60;2.95;;;9.30;99.90;;;;;;5059341;28;20028;-70
2023/05/17 06:04:02;;;;;;;19.30;2.78;;;9.20;99.90;;;;;;5058459;28;20028;-67
2023/05/17 06:06:28;;;;;;;16.77;2.70;;;9.30;99.90;;;;;;5060634;28;20033;-72
2023/05/17 06:08:53;;;;;;;18.25;2.78;;;9.30;99.90;;;;;;5060016;28;20041;-70
2023/05/17 06:11:20;;;;;;;18.42;3.15;;;9.40;99.90;;;;;;5061198;28;20039;-70
2023/05/17 06:13:46;;;;;;;21.17;2.65;;;9.40;99.90;;;;;;5061541;28;20032;-72
2023/05/17 06:16:11;;;;;;;18.95;2.40;;;9.50;99.90;;;;;;5058344;28;20068;-71
2023/05/17 06:18:37;;;;;;;19.60;2.90;;;9.50;99.90;;;;;;5060805;28;20036;-74
2023/05/17 06:21:03;;;;;;;14.98;3.13;;;9.50;99.90;;;;;;5060381;28;20025;-69
2023/05/17 06:23:28;;;;;;;19.15;2.80;;;9.60;99.90;;;;;;5059441;28;20040;-70
2023/05/17 06:25:54;;;;;;;17.25;3.28;;;9.60;99.90;;;;;;5060194;28;20037;-69
2023/05/17 06:28:20;;;;;;;12.77;2.47;;;9.60;99.90;;;;;;5059668;28;20105;-71
2023/05/17 06:30:45;;;;;;;11.40;2.30;;;9.70;99.90;;;;;;5060313;28;20087;-71
2023/05/17 06:33:11;;;;;;;24.73;2.80;;;9.70;99.90;;;;;;5059966;28;20035;-72
2023/05/17 06:35:37;;;;;;;20.77;2.83;;;9.70;99.90;;;;;;5061658;28;20133;-72
2023/05/17 06:38:03;;;;;;;18.65;2.33;;;9.80;99.90;;;;;;5061276;28;20530;-71
2023/05/17 06:40:28;;;;;;;25.88;2.88;;;9.90;99.90;;;;;;5060650;28;20029;-71
2023/05/17 06:42:54;;;;;;;23.98;3.45;;;9.80;99.90;;;;;;5059500;28;20042;-70
2023/05/17 06:45:20;;;;;;;16.00;2.92;;;9.80;99.90;;;;;;5059343;28;20443;-72
2023/05/17 06:47:46;;;;;;;22.77;3.03;;;9.80;99.90;;;;;;5061516;28;20020;-71
2023/05/17 06:50:12;;;;;;;21.63;2.72;;;9.70;99.90;;;;;;5059170;28;20041;-69
2023/05/17 06:52:37;;;;;;;21.48;3.30;;;9.70;99.90;;;;;;5062334;28;20033;-73
2023/05/17 06:55:03;;;;;;;21.90;2.97;;;9.70;99.90;;;;;;5063925;28;20021;-70
2023/05/17 06:57:29;;;;;;;23.90;2.72;;;9.80;99.90;;;;;;5063580;28;20032;-71
2023/05/17 06:59:55;;;;;;;21.92;2.90;;;9.80;99.90;;;;;;5064580;28;20021;-69
2023/05/17 07:02:20;;;;;;;22.33;3.20;;;9.80;99.90;;;;;;5063650;28;20025;-71
2023/05/17 07:04:46;;;;;;;22.23;3.45;;;9.90;99.90;;;;;;5064047;28;20073;-70
2023/05/17 07:07:11;;;;;;;18.38;3.15;;;9.90;99.90;;;;;;5064775;28;20032;-71
2023/05/17 07:09:37;;;;;;;22.90;3.20;;;10.10;99.90;;;;;;5065017;28;20086;-72
2023/05/17 07:12:04;;;;;;;21.95;3.35;;;10.10;99.90;;;;;;5064393;28;20367;-69
2023/05/17 07:14:30;;;;;;;23.52;2.88;;;10.20;99.90;;;;;;5062708;28;21426;-69
2023/05/17 07:16:56;;;;;;;17.25;3.20;;;10.20;99.90;;;;;;5064366;28;20035;-69
2023/05/17 07:19:22;;;;;;;15.80;2.58;;;10.20;99.90;;;;;;5064598;28;20028;-72
2023/05/17 07:21:48;;;;;;;22.10;3.55;;;10.20;99.90;;;;;;5064876;28;20029;-69
2023/05/17 07:24:13;;;;;;;21.70;2.78;;;10.20;99.90;;;;;;5065038;28;20062;-69
2023/05/17 07:26:39;;;;;;;18.90;2.28;;;10.10;99.90;;;;;;5062891;28;20107;-71
2023/05/17 07:29:05;;;;;;;20.38;2.83;;;10.00;99.90;;;;;;5063563;28;20025;-72
2023/05/17 07:31:30;;;;;;;20.92;2.58;;;9.90;99.90;;;;;;5064396;28;20446;-72
2023/05/17 07:33:56;;;;;;;18.27;2.20;;;9.90;99.90;;;;;;5062870;28;20043;-74
2023/05/17 07:36:22;;;;;;;15.25;1.88;;;9.90;99.90;;;;;;5063385;28;20021;-72
2023/05/17 07:38:47;;;;;;;12.18;1.98;;;9.90;99.90;;;;;;5064253;28;20021;-71
2023/05/17 07:41:15;;;;;;;15.98;2.03;;;10.00;99.90;;;;;;5060288;28;20032;-73
2023/05/17 07:43:41;;;;;;;17.25;2.03;;;10.10;99.90;;;;;;5063016;28;20017;-73
2023/05/17 07:46:07;;;;;;;14.95;2.20;;;10.20;99.90;;;;;;5060148;28;20054;-73
2023/05/17 07:48:32;;;;;;;12.35;2.92;;;10.30;99.90;;;;;;5062990;28;20056;-74
2023/05/17 07:50:58;;;;;;;10.10;2.00;;;10.30;99.90;;;;;;5064491;28;20040;-72
2023/05/17 07:53:23;;;;;;;17.23;1.67;;;10.50;99.90;;;;;;5064159;28;20047;-72
2023/05/17 07:55:49;;;;;;;8.60;1.65;;;10.60;99.90;;;;;;5062389;28;20093;-74
2023/05/17 07:58:15;;;;;;;12.15;2.35;;;10.60;99.90;;;;;;5062293;28;20025;-72
2023/05/17 08:00:41;;;;;;;13.27;1.88;;;10.70;99.90;;;;;;5062422;28;20037;-71
2023/05/17 08:03:07;;;;;;;20.70;2.25;;;10.70;99.90;;;;;;5060484;28;20163;-70
2023/05/17 08:05:32;;;;;;;11.93;1.70;;;10.70;99.90;;;;;;5058315;28;20075;-71
2023/05/17 08:07:59;;;;;;;12.55;2.15;;;10.70;99.90;;;;;;5060896;28;20041;-67
2023/05/17 08:10:25;;;;;;;10.32;1.45;;;10.60;99.90;;;;;;5059820;28;20105;-72
2023/05/17 08:12:51;;;;;;;11.80;1.70;;;10.60;99.90;;;;;;5061652;28;20031;-72
2023/05/17 08:15:17;;;;;;;10.88;2.28;;;10.70;99.90;;;;;;5061777;28;20049;-68
2023/05/17 08:17:42;;;;;;;17.67;2.25;;;10.80;99.90;;;;;;5058748;28;20040;-73
2023/05/17 08:20:08;;;;;;;13.57;1.50;;;10.90;99.90;;;;;;5058168;28;20554;-75
2023/05/17 08:22:35;;;;;;;12.15;2.53;;;11.00;99.90;;;;;;5060126;28;20029;-69
2023/05/17 08:25:01;;;;;;;12.35;2.05;;;10.90;99.90;;;;;;5060701;28;20507;-70
2023/05/17 08:27:29;;;;;;;10.38;1.75;;;10.80;99.90;;;;;;5057225;28;20031;-70
2023/05/17 08:29:56;;;;;;;11.43;2.33;;;10.70;99.90;;;;;;5056607;28;20036;-73
2023/05/17 08:32:22;;;;;;;16.90;2.53;;;10.60;99.90;;;;;;5059997;28;20029;-73
2023/05/17 08:34:48;;;;;;;12.95;1.85;;;10.70;99.90;;;;;;5059750;28;20032;-69
2023/05/17 08:37:14;;;;;;;11.15;2.10;;;10.80;99.90;;;;;;5058347;28;20033;-73
2023/05/17 08:39:42;;;;;;;14.15;1.70;;;11.00;99.90;;;;;;5061400;28;20021;-71
2023/05/17 08:42:08;;;;;;;14.45;2.20;;;11.10;99.90;;;;;;5058103;28;20037;-72
2023/05/17 08:44:35;;;;;;;20.00;2.10;;;11.10;99.90;;;;;;5055264;28;20040;-68
2023/05/17 08:47:02;;;;;;;10.55;2.22;;;11.00;99.90;;;;;;5056259;28;20059;-73
2023/05/17 08:49:32;;;;;;;12.98;2.13;;;11.10;99.90;;;;;;5075300;28;20067;-69
2023/05/17 08:52:00;;;;;;;12.85;2.50;;;11.20;99.90;;;;;;5059261;28;20140;-70
2023/05/17 08:54:26;;;;;;;11.55;2.35;;;11.30;99.90;;;;;;5057502;28;20032;-69
2023/05/17 08:56:57;;;;;;;14.05;2.15;;;11.60;99.90;;;;;;5059851;28;20021;-70
2023/05/17 08:59:25;;;;;;;16.35;1.98;;;11.50;99.90;;;;;;5059109;28;20429;-69
2023/05/17 09:01:52;;;;;;;15.90;2.63;;;11.60;99.90;;;;;;5059081;28;20021;-68
2023/05/17 09:04:18;;;;;;;13.63;2.30;;;11.50;99.90;;;;;;5058630;28;20029;-68
2023/05/17 09:06:44;;;;;;;11.02;2.35;;;11.40;99.90;;;;;;5059870;28;20052;-72
2023/05/17 09:09:10;;;;;;;17.63;2.88;;;11.30;99.90;;;;;;5060378;28;20416;-74
2023/05/17 09:11:36;;;;;;;17.95;2.95;;;11.30;99.90;;;;;;5061837;28;20032;-70
2023/05/17 09:14:03;;;;;;;12.27;2.60;;;11.40;99.90;;;;;;5061127;28;20033;-71
2023/05/17 09:16:30;;;;;;;13.98;2.25;;;11.30;99.90;;;;;;5059310;28;20029;-71
2023/05/17 09:18:57;;;;;;;18.20;2.50;;;11.50;99.90;;;;;;5060829;28;20053;-71
2023/05/17 09:21:24;;;;;;;11.75;2.25;;;11.70;99.90;;;;;;5058438;28;20052;-70
2023/05/17 09:23:53;;;;;;;13.40;2.58;;;11.70;99.90;;;;;;5058734;28;20021;-70
2023/05/17 09:26:20;;;;;;;9.85;2.17;;;11.60;99.90;;;;;;5060501;28;20044;-69
2023/05/17 09:28:47;;;;;;;21.35;2.50;;;11.40;99.90;;;;;;5059616;28;20077;-71
2023/05/17 09:31:15;;;;;;;10.90;2.47;;;11.30;99.90;;;;;;5060674;28;20032;-71
2023/05/17 09:33:50;;;;;;;12.27;2.45;;;11.10;99.90;;;;;;5060485;28;20013;-72
2023/05/17 09:36:20;;;;;;;13.18;1.88;;;11.00;99.90;;;;;;5061719;28;20021;-72
2023/05/17 09:39:00;;;;;;;15.52;2.50;;;11.10;99.90;;;;;;5060054;28;20452;-72
2023/05/17 09:41:31;;;;;;;14.45;2.63;;;11.20;99.90;;;;;;5058002;28;20037;-70
2023/05/17 09:44:01;;;;;;;14.88;2.10;;;11.20;99.90;;;;;;5061997;28;20021;-70
2023/05/17 09:46:40;;;;;;;15.50;2.70;;;11.20;99.90;;;;;;5061460;28;20048;-69
2023/05/17 09:49:08;;;;;;;12.63;1.80;;;11.30;99.90;;;;;;5060847;28;20120;-70
2023/05/17 09:51:41;;;;;;;8.35;2.08;;;11.40;99.90;;;;;;5058563;28;20037;-69
2023/05/17 09:54:10;;;;;;;;;;;11.60;99.90;;;;;;5059953;28;20061;-72
2023/05/17 09:56:37;;;;;;;11.20;2.00;;;11.60;99.90;;;;;;5058915;28;19916;-69
2023/05/17 09:59:13;;;;;;;10.57;2.08;;;11.50;99.90;;;;;;5057874;28;20024;-70
2023/05/17 10:01:40;;;;;;;14.13;2.00;;;11.50;99.90;;;;;;5059278;28;20037;-71
2023/05/17 10:04:08;;;;;;;11.13;3.08;;;11.60;99.90;;;;;;5061855;28;20032;-70
2023/05/17 10:06:37;;;;;;;11.68;2.15;;;11.60;99.90;;;;;;5060172;28;20021;-72
2023/05/17 10:09:05;;;;;;;13.43;2.30;;;11.50;99.90;;;;;;5059092;28;20048;-72
2023/05/17 10:11:33;;;;;;;12.10;2.17;;;11.40;99.90;;;;;;5057686;28;20059;-72
2023/05/17 10:14:07;;;;;;;7.95;1.65;;;11.30;99.90;;;;;;5056577;28;20478;-70
2023/05/17 10:16:35;;;;;;;15.05;2.08;;;11.20;99.90;;;;;;5058101;28;20041;-68
2023/05/17 10:19:02;;;;;;;17.15;2.20;;;11.30;99.90;;;;;;5056209;28;20044;-71
2023/05/17 10:21:30;;;;;;;15.90;2.47;;;11.60;99.90;;;;;;5058369;28;20067;-70
2023/05/17 10:23:56;;;;;;;11.52;2.00;;;11.80;99.90;;;;;;5055681;28;20025;-71
2023/05/17 10:26:22;;;;;;;13.93;2.00;;;12.10;99.90;;;;;;5057702;28;20130;-70
2023/05/17 10:28:50;;;;;;;14.95;2.28;;;12.20;99.90;;;;;;5059794;28;20056;-71
2023/05/17 10:31:17;;;;;;;17.00;2.47;;;12.30;99.90;;;;;;5056011;28;20032;-70
2023/05/17 10:33:45;;;;;;;16.98;2.28;;;12.10;99.90;;;;;;5058040;28;20021;-73
2023/05/17 10:36:16;;;;;;;18.48;2.78;;;11.90;99.90;;;;;;5059128;28;20035;-70
2023/05/17 10:38:42;;;;;;;18.10;2.92;;;11.60;99.90;;;;;;5060294;28;20052;-69
2023/05/17 10:41:10;;;;;;;17.15;2.80;;;11.50;99.90;;;;;;5057614;28;20461;-68
2023/05/17 10:43:38;;;;;;;20.67;2.55;;;11.40;99.90;;;;;;5050738;28;20415;-69
2023/05/17 10:46:21;;;;;;;17.38;2.75;;;11.50;99.90;;;;;;5057582;28;20032;-73
2023/05/17 10:48:51;;;;;;;23.58;2.92;;;11.50;99.90;;;;;;5059094;28;20070;-73
2023/05/17 10:51:44;;;;;;;13.63;2.20;;;11.50;99.90;;;;;;5059723;28;20037;-71
2023/05/17 10:54:11;;;;;;;14.57;2.22;;;11.60;99.90;;;;;;5059356;28;20044;-70
2023/05/17 10:56:45;;;;;;;12.02;2.58;;;11.60;99.90;;;;;;5060313;28;21377;-70
2023/05/17 10:59:25;;;;;;;14.88;2.65;;;11.50;99.90;;;;;;5060295;28;20041;-71
2023/05/17 11:01:57;;;;;;;10.77;2.50;;;11.50;99.90;;;;;;5057284;28;20029;-70
2023/05/17 11:04:24;;;;;;;14.23;2.33;;;11.60;99.90;;;;;;5059341;28;20088;-71
2023/05/17 11:07:16;;;;;;;14.20;2.38;;;11.80;99.90;;;;;;5060458;28;20508;-69
2023/05/17 11:09:53;;;;;;;10.18;2.22;;;12.00;99.90;;;;;;5058437;28;20036;-70
2023/05/17 11:12:36;;;;;;;15.82;4.03;;;12.00;99.90;;;;;;5060416;28;20037;-71
2023/05/17 11:15:07;;;;;;;10.57;2.15;;;12.00;99.90;;;;;;5060954;28;20029;-72
2023/05/17 11:17:42;;;;;;;13.25;2.33;;;12.00;99.90;;;;;;5058232;28;20101;-71
2023/05/17 11:20:15;;;;;;;11.75;2.25;;;12.10;99.90;;;;;;5058564;28;20036;-70
2023/05/17 11:22:43;;;;;;;12.90;2.50;;;12.30;99.90;;;;;;5060679;28;20036;-71
2023/05/17 11:25:13;;;;;;;13.07;2.45;;;12.60;99.90;;;;;;5059735;28;20079;-69
2023/05/17 11:27:47;;;;;;;18.75;2.40;;;12.70;99.90;;;;;;5058435;28;20026;-71
2023/05/17 11:30:19;;;;;;;10.05;2.63;;;12.50;99.90;;;;;;5059418;28;20448;-73
2023/05/17 11:32:50;;;;;;;15.00;2.92;;;12.40;99.90;;;;;;5060580;28;20044;-71
2023/05/17 11:35:17;;;;;;;22.50;2.80;;;12.40;99.90;;;;;;5059118;28;20111;-73
2023/05/17 11:37:43;;;;;;;16.90;2.60;;;12.40;99.90;;;;;;5057385;28;20040;-73
2023/05/17 11:40:12;;;;;;;11.32;2.22;;;12.50;99.90;;;;;;5063024;28;20021;-73
2023/05/17 11:42:38;;;;;;;14.38;2.72;;;12.40;99.90;;;;;;5063578;28;20033;-73
2023/05/17 11:45:05;;;;;;;8.88;1.85;;;12.40;99.90;;;;;;5063002;28;20024;-70
2023/05/17 11:47:31;;;;;;;13.68;2.05;;;12.30;99.90;;;;;;5061411;28;20780;-71
2023/05/17 11:50:02;;;;;;;12.95;2.05;;;12.20;99.90;;;;;;5061066;28;20045;-73
2023/05/17 11:52:29;;;;;;;16.42;2.45;;;12.20;99.90;;;;;;5061860;28;20103;-72
2023/05/17 11:54:56;;;;;;;8.77;2.20;;;12.20;99.90;;;;;;5063992;28;20465;-70
2023/05/17 11:57:29;;;;;;;9.68;2.03;;;12.20;99.90;;;;;;5060755;28;20025;-70
2023/05/17 12:00:00;;;;;;;9.50;2.28;;;12.20;99.90;;;;;;5061225;28;20035;-70
2023/05/17 12:02:29;;;;;;;15.50;1.90;;;12.40;99.90;;;;;;5063012;28;20031;-71
2023/05/17 12:04:55;;;;;;;15.20;1.92;;;12.60;99.90;;;;;;5063530;28;20033;-69
2023/05/17 12:07:21;;;;;;;11.70;1.90;;;12.70;99.90;;;;;;5063279;28;20028;-70
2023/05/17 12:09:47;;;;;;;12.80;2.08;;;12.70;99.90;;;;;;5064149;28;20025;-71
2023/05/17 12:12:14;;;;;;;8.70;2.00;;;12.60;99.90;;;;;;5062124;28;20045;-73
2023/05/17 12:14:43;;;;;;;7.80;2.00;;;12.40;99.90;;;;;;5060054;28;20024;-70
2023/05/17 12:17:12;;;;;;;8.85;2.17;;;12.30;99.90;;;;;;5061252;28;20028;-72
2023/05/17 12:19:38;;;;;;;10.68;2.28;;;12.20;99.90;;;;;;5063120;28;20955;-69
2023/05/17 12:22:07;;;;;;;9.93;1.80;;;12.30;99.90;;;;;;5060235;28;20032;-73
2023/05/17 12:24:42;;;;;;;7.10;1.73;;;12.30;99.90;;;;;;5060450;28;20021;-70
2023/05/17 12:27:09;;;;;;;13.63;2.42;;;12.40;99.90;;;;;;5056939;28;20021;-72
2023/05/17 12:29:34;;;;;;;9.80;2.47;;;12.40;99.90;;;;;;5061447;28;20499;-73
2023/05/17 12:32:01;;;;;;;18.27;2.53;;;12.40;99.90;;;;;;5059545;28;20040;-70
2023/05/17 12:34:28;;;;;;;16.83;2.28;;;12.30;99.90;;;;;;5058669;28;20044;-71
2023/05/17 12:36:54;;;;;;;19.50;2.90;;;12.00;99.90;;;;;;5061327;28;20565;-70
2023/05/17 12:39:23;;;;;;;14.50;2.63;;;11.80;99.90;;;;;;5058728;28;20036;-70
2023/05/17 12:41:53;;;;;;;16.15;2.55;;;11.80;99.90;;;;;;5060673;28;20055;-72
2023/05/17 12:44:19;;;;;;;16.48;2.35;;;11.90;99.90;;;;;;5054189;28;20021;-71